createdAt,value
2023-02-07T00:00:37.760Z,99755.53
2023-02-07T00:03:05.760Z,99744.94
2023-02-07T00:05:33.869Z,99746.75
2023-02-07T00:08:01.816Z,99748.50
2023-02-07T00:10:29.735Z,99750.19
2023-02-07T00:12:59.006Z,99758.22
2023-02-07T00:15:28.111Z,99759.06
2023-02-07T00:17:56.127Z,99742.28
2023-02-07T00:21:01.893Z,99745.88
2023-02-07T00:23:30.235Z,99757.28
2023-02-07T00:25:58.955Z,99751.28
2023-02-07T00:28:28.405Z,99735.47
2023-02-07T00:31:04.317Z,99738.84
2023-02-07T00:33:32.420Z,99729.25
2023-02-07T00:36:00.753Z,99740.81
2023-02-07T00:38:28.765Z,99732.91
2023-02-07T00:40:56.894Z,99732.09
2023-02-07T00:43:30.020Z,99724.19
2023-02-07T00:46:00.461Z,99720.63
2023-02-07T00:48:28.431Z,99709.28
2023-02-07T00:50:56.430Z,99701.38
2023-02-07T00:53:24.931Z,99696.03
2023-02-07T00:55:52.952Z,99703.13
2023-02-07T00:58:20.939Z,99694.34
2023-02-07T01:00:49.045Z,99693.47
2023-02-07T01:03:18.406Z,99699.69
2023-02-07T01:05:46.651Z,99694.28
2023-02-07T01:08:14.618Z,99689.97
2023-02-07T01:10:42.738Z,99697.00
2023-02-07T01:13:10.705Z,99694.38
2023-02-07T01:15:39.082Z,99701.44
2023-02-07T01:18:07.671Z,99709.31
2023-02-07T01:20:37.288Z,99697.88
2023-02-07T01:23:05.599Z,99696.13
2023-02-07T01:25:33.630Z,99697.88
2023-02-07T01:28:01.655Z,99694.34
2023-02-07T01:30:29.624Z,99690.91
2023-02-07T01:32:57.869Z,99681.19
2023-02-07T01:35:25.788Z,99670.75
2023-02-07T01:37:55.145Z,99676.06
2023-02-07T01:40:23.286Z,99670.69
2023-02-07T01:42:51.210Z,99668.09
2023-02-07T01:45:25.501Z,99667.28
2023-02-07T01:47:53.741Z,99664.66
2023-02-07T01:50:21.864Z,99660.28
2023-02-07T01:52:49.824Z,99669.91
2023-02-07T01:55:20.997Z,99671.69
2023-02-07T01:57:49.000Z,99674.38
2023-02-07T02:00:17.172Z,99661.09
2023-02-07T02:02:45.202Z,99661.91
2023-02-07T02:05:13.250Z,99668.13
2023-02-07T02:07:41.210Z,99669.03
2023-02-07T02:10:14.716Z,99669.94
2023-02-07T02:13:00.627Z,99662.03
2023-02-07T02:15:37.781Z,99666.47
2023-02-07T02:18:24.182Z,99664.66
2023-02-07T02:21:27.292Z,99662.09
2023-02-07T02:24:08.491Z,99661.16
2023-02-07T02:26:46.437Z,99669.06
2023-02-07T02:29:51.051Z,99663.78
2023-02-07T02:32:58.896Z,99674.31
2023-02-07T02:35:31.772Z,99676.06
2023-02-07T02:38:03.261Z,99674.34
2023-02-07T02:40:34.350Z,99669.97
2023-02-07T02:43:04.540Z,99675.28
2023-02-07T02:45:34.207Z,99679.69
2023-02-07T02:48:03.800Z,99674.34
2023-02-07T02:50:32.146Z,99677.06
2023-02-07T02:53:00.136Z,99665.53
2023-02-07T02:55:39.581Z,99660.28
2023-02-07T02:58:09.264Z,99659.41
2023-02-07T03:00:48.090Z,99662.97
2023-02-07T03:03:30.954Z,99661.22
2023-02-07T03:06:04.529Z,99661.97
2023-02-07T03:08:34.670Z,99662.03
2023-02-07T03:11:09.419Z,99666.34
2023-02-07T03:13:41.949Z,99653.13
2023-02-07T03:16:13.756Z,99651.44
2023-02-07T03:18:46.750Z,99654.94
2023-02-07T03:21:18.948Z,99655.81
2023-02-07T03:23:46.901Z,99661.03
2023-02-07T03:26:14.810Z,99660.16
2023-02-07T03:28:43.502Z,99650.56
2023-02-07T03:31:11.554Z,99649.66
2023-02-07T03:33:39.733Z,99648.84
2023-02-07T03:36:11.247Z,99654.09
2023-02-07T03:38:39.173Z,99657.56
2023-02-07T03:41:10.526Z,99650.63
2023-02-07T03:43:38.479Z,99662.91
2023-02-07T03:46:09.421Z,99662.03
2023-02-07T03:48:37.702Z,99673.38
2023-02-07T03:51:06.238Z,99671.72
2023-02-07T03:53:35.662Z,99670.09
2023-02-07T03:56:04.195Z,99674.38
2023-02-07T03:58:32.199Z,99680.50
2023-02-07T04:01:00.687Z,99678.69
2023-02-07T04:03:28.675Z,99678.81
2023-02-07T04:05:56.850Z,99684.13
2023-02-07T04:08:25.274Z,99684.25
2023-02-07T04:11:01.367Z,99682.38
2023-02-07T04:13:29.410Z,99687.72
2023-02-07T04:15:57.673Z,99685.03
2023-02-07T04:18:25.962Z,99692.06
2023-02-07T04:20:53.984Z,99697.38
2023-02-07T04:23:21.926Z,99685.03
2023-02-07T04:25:50.153Z,99690.41
2023-02-07T04:28:19.657Z,99688.69
2023-02-07T04:30:48.022Z,99679.06
2023-02-07T04:33:16.001Z,99684.28
2023-02-07T04:35:43.948Z,99690.47
2023-02-07T04:38:11.973Z,99695.72
2023-02-07T04:40:40.188Z,99700.09
2023-02-07T04:43:08.471Z,99695.78
2023-02-07T04:45:40.282Z,99698.38
2023-02-07T04:48:08.418Z,99702.78
2023-02-07T04:50:36.632Z,99705.38
2023-02-07T04:53:04.756Z,99688.72
2023-02-07T04:55:34.412Z,99695.72
2023-02-07T04:58:02.492Z,99696.56
2023-02-07T05:00:30.502Z,99700.00
2023-02-07T05:03:01.034Z,99690.44
2023-02-07T05:05:29.319Z,99695.66
2023-02-07T05:07:57.232Z,99697.31
2023-02-07T05:10:25.200Z,99704.34
2023-02-07T05:12:53.151Z,99693.81
2023-02-07T05:15:21.130Z,99696.44
2023-02-07T05:17:49.705Z,99688.59
2023-02-07T05:20:19.657Z,99693.81
2023-02-07T05:22:47.696Z,99694.72
2023-02-07T05:25:15.726Z,99684.34
2023-02-07T05:27:43.707Z,99690.34
2023-02-07T05:30:12.929Z,99690.44
2023-02-07T05:32:58.112Z,99686.97
2023-02-07T05:35:27.730Z,99686.94
2023-02-07T05:37:55.677Z,99680.75
2023-02-07T05:40:25.834Z,99687.81
2023-02-07T05:42:53.899Z,99691.28
2023-02-07T05:45:21.915Z,99691.34
2023-02-07T05:47:51.892Z,99685.16
2023-02-07T05:50:21.739Z,99686.94
2023-02-07T05:52:51.201Z,99690.44
2023-02-07T05:55:19.389Z,99679.91
2023-02-07T05:57:47.482Z,99684.28
2023-02-07T06:00:16.843Z,99683.41
2023-02-07T06:02:44.888Z,99683.38
2023-02-07T06:05:14.087Z,99683.38
2023-02-07T06:07:42.281Z,99681.59
2023-02-07T06:10:14.633Z,99688.63
2023-02-07T06:12:42.565Z,99679.91
2023-02-07T06:15:11.302Z,99682.53
2023-02-07T06:17:39.312Z,99681.66
2023-02-07T06:20:08.178Z,99681.72
2023-02-07T06:22:36.091Z,99673.81
2023-02-07T06:25:04.474Z,99670.22
2023-02-07T06:27:37.176Z,99668.47
2023-02-07T06:30:05.533Z,99660.59
2023-02-07T06:32:34.393Z,99669.31
2023-02-07T06:35:02.815Z,99669.31
2023-02-07T06:37:31.285Z,99660.50
2023-02-07T06:40:00.072Z,99664.00
2023-02-07T06:42:28.062Z,99669.25
2023-02-07T06:44:57.710Z,99672.72
2023-02-07T06:47:25.647Z,99664.84
2023-02-07T06:49:53.655Z,99659.59
2023-02-07T06:52:21.670Z,99660.47
2023-02-07T06:54:50.056Z,99668.44
2023-02-07T06:57:18.069Z,99676.22
2023-02-07T06:59:46.006Z,99670.97
2023-02-07T07:02:15.348Z,99671.06
2023-02-07T07:04:43.570Z,99672.81
2023-02-07T07:07:13.997Z,99674.56
2023-02-07T07:09:41.918Z,99677.97
2023-02-07T07:12:09.919Z,99685.00
2023-02-07T07:14:38.156Z,99689.38
2023-02-07T07:17:06.177Z,99700.66
2023-02-07T07:19:35.664Z,99717.38
2023-02-07T07:22:03.683Z,99713.97
2023-02-07T07:24:31.970Z,99722.69
2023-02-07T07:26:59.850Z,99724.47
2023-02-07T07:29:27.823Z,99732.38
2023-02-07T07:31:56.152Z,99724.47
2023-02-07T07:34:27.527Z,99729.63
2023-02-07T07:37:00.194Z,99732.34
2023-02-07T07:39:28.353Z,99730.53
2023-02-07T07:41:56.806Z,99729.63
2023-02-07T07:44:24.896Z,99743.66
2023-02-07T07:46:52.810Z,99742.78
2023-02-07T07:49:21.109Z,99735.75
2023-02-07T07:51:50.047Z,99736.66
2023-02-07T07:54:19.655Z,99748.00
2023-02-07T07:56:47.926Z,99757.63
2023-02-07T07:59:24.011Z,99761.19
2023-02-07T08:01:52.536Z,99765.53
2023-02-07T08:04:20.786Z,99767.34
2023-02-07T08:06:48.825Z,99766.47
2023-02-07T08:09:16.800Z,99766.41
2023-02-07T08:11:46.254Z,99768.94
2023-02-07T08:14:14.201Z,99773.44
2023-02-07T08:16:42.270Z,99762.78
2023-02-07T08:19:10.676Z,99762.78
2023-02-07T08:21:38.687Z,99761.84
2023-02-07T08:24:06.930Z,99760.16
2023-02-07T08:26:35.152Z,99760.06
2023-02-07T08:29:04.843Z,99767.03
2023-02-07T08:31:33.084Z,99756.47
2023-02-07T08:34:01.098Z,99754.66
2023-02-07T08:36:34.206Z,99763.38
2023-02-07T08:39:06.906Z,99752.84
2023-02-07T08:41:35.456Z,99748.44
2023-02-07T08:44:04.862Z,99742.22
2023-02-07T08:46:32.860Z,99747.41
2023-02-07T08:49:00.782Z,99743.00
2023-02-07T08:51:28.992Z,99737.69
2023-02-07T08:53:56.991Z,99729.69
2023-02-07T08:56:25.445Z,99728.00
2023-02-07T08:58:53.758Z,99732.44
2023-02-07T09:01:23.351Z,99736.72
2023-02-07T09:03:51.377Z,99733.19
2023-02-07T09:06:19.557Z,99723.34
2023-02-07T09:08:47.645Z,99712.88
2023-02-07T09:11:16.271Z,99716.19
2023-02-07T09:13:45.536Z,99716.28
2023-02-07T09:16:13.816Z,99712.53
2023-02-07T09:18:43.889Z,99709.97
2023-02-07T09:21:12.198Z,99703.66
2023-02-07T09:23:40.177Z,99701.03
2023-02-07T09:26:08.998Z,99701.88
2023-02-07T09:28:37.044Z,99698.06
2023-02-07T09:31:09.381Z,99693.81
2023-02-07T09:33:37.515Z,99682.22
2023-02-07T09:36:08.212Z,99681.84
2023-02-07T09:38:36.489Z,99675.91
2023-02-07T09:41:04.610Z,99690.66
2023-02-07T09:43:38.475Z,99689.53
2023-02-07T09:46:08.400Z,99685.34
2023-02-07T09:48:44.123Z,99690.13
2023-02-07T09:51:15.098Z,99693.47
2023-02-07T09:53:45.069Z,99689.38
2023-02-07T09:56:13.311Z,99686.38
2023-02-07T09:58:43.646Z,99686.44
2023-02-07T10:01:13.701Z,99689.00
2023-02-07T10:03:45.313Z,99685.09
2023-02-07T10:06:19.951Z,99692.00
2023-02-07T10:08:48.923Z,99685.06
2023-02-07T10:11:20.262Z,99683.41
2023-02-07T10:13:58.852Z,99681.34
2023-02-07T10:16:35.817Z,99678.03
2023-02-07T10:19:07.591Z,99681.75
2023-02-07T10:21:41.884Z,99677.63
2023-02-07T10:24:29.174Z,99673.94
2023-02-07T10:27:00.670Z,99680.72
2023-02-07T10:29:42.319Z,99678.59
2023-02-07T10:32:15.024Z,99679.50
2023-02-07T10:34:45.752Z,99672.84
2023-02-07T10:37:18.646Z,99667.88
2023-02-07T10:39:48.525Z,99667.25
2023-02-07T10:42:16.915Z,99667.50
2023-02-07T10:44:44.961Z,99675.31
2023-02-07T10:47:15.570Z,99669.63
2023-02-07T10:49:44.782Z,99672.69
2023-02-07T10:52:20.817Z,99669.81
2023-02-07T10:54:52.871Z,99670.63
2023-02-07T10:57:21.079Z,99676.47
2023-02-07T10:59:50.555Z,99674.41
2023-02-07T11:02:43.144Z,99667.72
2023-02-07T11:05:34.131Z,99675.38
2023-02-07T11:08:04.358Z,99669.72
2023-02-07T11:10:35.609Z,99665.34
2023-02-07T11:13:03.981Z,99667.78
2023-02-07T11:15:40.926Z,99664.28
2023-02-07T11:18:09.050Z,99674.75
2023-02-07T11:20:37.903Z,99673.69
2023-02-07T11:23:09.308Z,99669.28
2023-02-07T11:25:38.785Z,99668.25
2023-02-07T11:28:07.074Z,99668.97
2023-02-07T11:30:37.154Z,99665.13
2023-02-07T11:33:07.623Z,99663.28
2023-02-07T11:35:35.729Z,99664.44
2023-02-07T11:38:04.970Z,99657.31
2023-02-07T11:40:38.123Z,99654.94
2023-02-07T11:43:12.576Z,99660.59
2023-02-07T11:45:41.905Z,99661.50
2023-02-07T11:48:18.425Z,99650.22
2023-02-07T11:50:51.193Z,99651.13
2023-02-07T11:53:25.019Z,99653.50
2023-02-07T11:55:55.299Z,99650.91
2023-02-07T11:58:29.266Z,99657.06
2023-02-07T12:00:57.668Z,99653.44
2023-02-07T12:03:26.482Z,99652.31
2023-02-07T12:05:56.542Z,99649.16
2023-02-07T12:08:25.989Z,99649.59
2023-02-07T12:10:58.975Z,99655.19
2023-02-07T12:13:34.710Z,99644.31
2023-02-07T12:16:04.435Z,99636.56
2023-02-07T12:18:34.483Z,99633.13
2023-02-07T12:21:05.368Z,99636.22
2023-02-07T12:23:42.756Z,99635.22
2023-02-07T12:26:17.866Z,99627.25
2023-02-07T12:28:48.643Z,99629.59
2023-02-07T12:31:25.700Z,99624.72
2023-02-07T12:34:03.995Z,99629.41
2023-02-07T12:36:37.526Z,99618.41
2023-02-07T12:39:10.652Z,99621.31
2023-02-07T12:41:42.024Z,99614.06
2023-02-07T12:44:14.140Z,99618.69
2023-02-07T12:46:44.404Z,99624.88
2023-02-07T12:49:29.276Z,99617.03
2023-02-07T12:52:01.010Z,99613.34
2023-02-07T12:54:35.854Z,99616.63
2023-02-07T12:57:08.637Z,99611.06
2023-02-07T12:59:41.680Z,99612.94
2023-02-07T13:02:21.413Z,99599.38
2023-02-07T13:05:02.461Z,99599.59
2023-02-07T13:07:40.591Z,99591.34
2023-02-07T13:10:16.326Z,99593.19
2023-02-07T13:12:50.866Z,99596.03
2023-02-07T13:15:23.391Z,99597.78
2023-02-07T13:17:54.989Z,99595.09
2023-02-07T13:20:28.929Z,99597.28
2023-02-07T13:23:02.152Z,99606.53
2023-02-07T13:25:36.588Z,99601.25
2023-02-07T13:28:07.875Z,99605.91
2023-02-07T13:30:35.924Z,99605.31
2023-02-07T13:33:05.879Z,99596.53
2023-02-07T13:35:35.597Z,99605.34
2023-02-07T13:38:05.219Z,99596.28
2023-02-07T13:40:35.786Z,99588.44
2023-02-07T13:43:07.543Z,99597.09
2023-02-07T13:45:40.763Z,99587.59
2023-02-07T13:48:11.907Z,99593.00
2023-02-07T13:50:43.235Z,99590.88
2023-02-07T13:53:19.577Z,99589.19
2023-02-07T13:55:48.238Z,99584.78
2023-02-07T13:59:12.085Z,99583.06
2023-02-07T14:01:47.332Z,99588.47
2023-02-07T14:04:19.221Z,99582.69
2023-02-07T14:07:02.858Z,99583.63
2023-02-07T14:09:34.301Z,99591.28
2023-02-07T14:12:06.755Z,99584.16
2023-02-07T14:14:37.497Z,99589.47
2023-02-07T14:17:06.441Z,99584.75
2023-02-07T14:19:54.771Z,99590.47
2023-02-07T14:22:24.918Z,99594.00
2023-02-07T14:25:19.048Z,99593.00
2023-02-07T14:28:19.391Z,99584.69
2023-02-07T14:31:14.588Z,99587.22
2023-02-07T14:33:42.827Z,99580.63
2023-02-07T14:36:26.412Z,99578.53
2023-02-07T14:39:07.224Z,99581.19
2023-02-07T14:41:37.212Z,99576.25
2023-02-07T14:44:10.026Z,99571.78
2023-02-07T14:46:40.969Z,99563.41
2023-02-07T14:49:12.867Z,99567.09
2023-02-07T14:51:43.089Z,99567.88
2023-02-07T14:54:17.184Z,99574.81
2023-02-07T14:57:00.419Z,99570.41
2023-02-07T14:59:30.637Z,99570.69
2023-02-07T15:02:07.652Z,99562.84
2023-02-07T15:04:36.623Z,99565.50
2023-02-07T15:07:04.695Z,99557.09
2023-02-07T15:09:32.675Z,99564.84
2023-02-07T15:12:12.775Z,99560.66
2023-02-07T15:14:46.920Z,99561.50
2023-02-07T15:17:21.359Z,99559.53
2023-02-07T15:19:49.506Z,99561.59
2023-02-07T15:22:25.898Z,99568.63
2023-02-07T15:24:54.932Z,99566.75
2023-02-07T15:27:25.732Z,99568.53
2023-02-07T15:29:56.651Z,99564.97
2023-02-07T15:32:32.457Z,99560.19
2023-02-07T15:35:08.577Z,99563.16
2023-02-07T15:37:37.434Z,99559.75
2023-02-07T15:40:05.778Z,99554.59
2023-02-07T15:42:36.140Z,99567.84
2023-02-07T15:45:10.574Z,99567.72
2023-02-07T15:47:42.837Z,99568.28
2023-02-07T15:50:22.780Z,99564.09
2023-02-07T15:52:51.766Z,99561.59
2023-02-07T15:55:22.894Z,99564.84
2023-02-07T15:57:51.470Z,99567.34
2023-02-07T16:00:20.777Z,99567.38
2023-02-07T16:02:56.722Z,99565.84
2023-02-07T16:05:26.033Z,99576.38
2023-02-07T16:07:54.537Z,99573.53
2023-02-07T16:10:34.124Z,99579.91
2023-02-07T16:13:02.325Z,99578.41
2023-02-07T16:15:34.818Z,99581.25
2023-02-07T16:18:06.057Z,99586.25
2023-02-07T16:20:36.301Z,99587.97
2023-02-07T16:23:05.461Z,99581.66
2023-02-07T16:25:34.485Z,99587.97
2023-02-07T16:28:02.581Z,99587.31
2023-02-07T16:30:35.358Z,99586.84
2023-02-07T16:33:07.009Z,99586.66
2023-02-07T16:36:10.761Z,99584.31
2023-02-07T16:38:40.450Z,99588.13
2023-02-07T16:41:08.876Z,99593.81
2023-02-07T16:43:38.269Z,99586.72
2023-02-07T16:46:06.477Z,99588.66
2023-02-07T16:48:35.840Z,99582.09
2023-02-07T16:51:04.226Z,99584.78
2023-02-07T16:53:32.252Z,99584.94
2023-02-07T16:56:00.207Z,99592.16
2023-02-07T16:58:29.140Z,99598.25
2023-02-07T17:01:00.026Z,99603.66
2023-02-07T17:03:28.977Z,99606.41
2023-02-07T17:05:58.807Z,99612.72
2023-02-07T17:08:30.134Z,99606.28
2023-02-07T17:10:59.684Z,99606.50
2023-02-07T17:13:27.724Z,99613.59
2023-02-07T17:15:57.342Z,99617.06
2023-02-07T17:18:26.132Z,99615.53
2023-02-07T17:20:56.925Z,99613.63
2023-02-07T17:23:29.130Z,99623.34
2023-02-07T17:25:57.386Z,99624.53
2023-02-07T17:28:25.353Z,99625.41
2023-02-07T17:30:54.649Z,99622.47
2023-02-07T17:33:22.666Z,99625.19
2023-02-07T17:35:50.709Z,99629.81
2023-02-07T17:38:18.946Z,99619.06
2023-02-07T17:40:48.666Z,99625.94
2023-02-07T17:43:16.775Z,99627.94
2023-02-07T17:45:45.267Z,99631.41
2023-02-07T17:48:13.232Z,99633.63
2023-02-07T17:50:42.190Z,99629.22
2023-02-07T17:53:10.411Z,99627.38
2023-02-07T17:55:38.341Z,99628.28
2023-02-07T17:58:07.872Z,99625.59
2023-02-07T18:00:38.189Z,99620.50
2023-02-07T18:03:06.981Z,99622.34
2023-02-07T18:05:34.929Z,99623.00
2023-02-07T18:08:04.428Z,99612.44
2023-02-07T18:10:33.604Z,99622.06
2023-02-07T18:13:02.050Z,99627.38
2023-02-07T18:15:31.600Z,99628.28
2023-02-07T18:17:59.888Z,99622.16
2023-02-07T18:20:29.768Z,99617.75
2023-02-07T18:22:58.337Z,99618.50
2023-02-07T18:25:27.513Z,99615.94
2023-02-07T18:27:55.484Z,99620.34
2023-02-07T18:30:26.722Z,99616.72
2023-02-07T18:32:58.460Z,99607.00
2023-02-07T18:35:26.554Z,99611.63
2023-02-07T18:37:54.414Z,99617.84
2023-02-07T18:40:22.693Z,99620.59
2023-02-07T18:42:50.644Z,99616.19
2023-02-07T18:45:18.872Z,99613.63
2023-02-07T18:47:48.406Z,99610.09
2023-02-07T18:50:19.831Z,99624.31
2023-02-07T18:52:47.857Z,99621.69
2023-02-07T18:55:15.808Z,99623.56
2023-02-07T18:57:43.786Z,99621.09
2023-02-07T19:00:12.977Z,99629.84
2023-02-07T19:02:40.911Z,99629.88
2023-02-07T19:05:09.279Z,99621.22
2023-02-07T19:07:38.891Z,99621.13
2023-02-07T19:10:07.295Z,99623.78
2023-02-07T19:12:35.208Z,99626.50
2023-02-07T19:15:03.261Z,99624.84
2023-02-07T19:17:31.328Z,99616.34
2023-02-07T19:19:59.309Z,99622.28
2023-02-07T19:22:35.370Z,99625.88
2023-02-07T19:25:06.462Z,99619.66
2023-02-07T19:27:34.469Z,99619.72
2023-02-07T19:30:02.511Z,99619.81
2023-02-07T19:32:30.507Z,99613.81
2023-02-07T19:34:58.468Z,99623.69
2023-02-07T19:37:26.427Z,99627.06
2023-02-07T19:39:56.311Z,99622.00
2023-02-07T19:42:25.843Z,99622.06
2023-02-07T19:44:56.952Z,99620.22
2023-02-07T19:47:25.286Z,99635.28
2023-02-07T19:49:53.496Z,99631.91
2023-02-07T19:52:23.131Z,99623.91
2023-02-07T19:54:51.084Z,99621.25
2023-02-07T19:57:19.644Z,99617.72
2023-02-07T19:59:49.841Z,99610.53
2023-02-07T20:02:18.007Z,99614.19
2023-02-07T20:04:46.178Z,99621.25
2023-02-07T20:07:14.228Z,99619.69
2023-02-07T20:09:42.193Z,99617.72
2023-02-07T20:12:10.484Z,99616.94
2023-02-07T20:14:38.494Z,99619.47
2023-02-07T20:17:08.208Z,99615.94
2023-02-07T20:19:36.152Z,99609.75
2023-02-07T20:22:04.196Z,99614.91
2023-02-07T20:24:32.487Z,99616.72
2023-02-07T20:27:00.635Z,99616.81
2023-02-07T20:29:28.595Z,99618.72
2023-02-07T20:31:56.527Z,99620.50
2023-02-07T20:34:26.239Z,99613.47
2023-02-07T20:36:54.178Z,99621.28
2023-02-07T20:39:22.700Z,99619.63
2023-02-07T20:41:50.886Z,99621.34
2023-02-07T20:44:19.807Z,99618.72
2023-02-07T20:46:49.305Z,99609.28
2023-02-07T20:49:19.614Z,99614.34
2023-02-07T20:51:50.480Z,99609.13
2023-02-07T20:54:19.045Z,99618.75
2023-02-07T20:56:47.008Z,99621.53
2023-02-07T20:59:19.408Z,99622.38
2023-02-07T21:01:47.959Z,99622.47
2023-02-07T21:04:15.851Z,99615.44
2023-02-07T21:06:44.806Z,99611.19
2023-02-07T21:09:14.434Z,99614.69
2023-02-07T21:11:43.598Z,99606.09
2023-02-07T21:14:15.041Z,99601.03
2023-02-07T21:16:43.165Z,99611.47
2023-02-07T21:19:11.205Z,99607.94
2023-02-07T21:21:39.712Z,99603.56
2023-02-07T21:24:08.418Z,99607.91
2023-02-07T21:26:37.731Z,99607.91
2023-02-07T21:29:05.870Z,99613.06
2023-02-07T21:31:35.892Z,99614.66
2023-02-07T21:34:04.192Z,99605.97
2023-02-07T21:36:33.383Z,99605.16
2023-02-07T21:39:04.328Z,99610.44
2023-02-07T21:41:32.437Z,99606.03
2023-02-07T21:44:02.623Z,99606.03
2023-02-07T21:46:32.718Z,99604.28
2023-02-07T21:49:02.697Z,99605.28
2023-02-07T21:51:31.371Z,99595.53
2023-02-07T21:53:59.508Z,99596.47
2023-02-07T21:56:28.351Z,99593.81
2023-02-07T21:58:56.842Z,99601.88
2023-02-07T22:01:26.279Z,99601.88
2023-02-07T22:03:55.440Z,99606.41
2023-02-07T22:06:23.425Z,99595.69
2023-02-07T22:08:51.889Z,99595.75
2023-02-07T22:11:22.930Z,99597.38
2023-02-07T22:13:54.414Z,99609.78
2023-02-07T22:16:23.767Z,99608.03
2023-02-07T22:18:54.264Z,99608.06
2023-02-07T22:21:23.446Z,99602.88
2023-02-07T22:23:51.607Z,99603.78
2023-02-07T22:26:20.122Z,99601.06
2023-02-07T22:28:48.603Z,99597.47
2023-02-07T22:31:17.575Z,99587.94
2023-02-07T22:33:45.801Z,99597.50
2023-02-07T22:36:15.506Z,99601.94
2023-02-07T22:38:43.455Z,99594.97
2023-02-07T22:41:11.768Z,99590.56
2023-02-07T22:43:40.140Z,99589.69
2023-02-07T22:46:10.065Z,99589.56
2023-02-07T22:48:38.069Z,99595.09
2023-02-07T22:51:11.870Z,99591.44
2023-02-07T22:53:41.218Z,99588.09
2023-02-07T22:56:09.245Z,99594.97
2023-02-07T22:58:37.497Z,99597.50
2023-02-07T23:01:07.468Z,99595.91
2023-02-07T23:03:35.471Z,99593.22
2023-02-07T23:06:04.987Z,99599.38
2023-02-07T23:08:33.041Z,99607.16
2023-02-07T23:11:02.424Z,99600.09
2023-02-07T23:13:30.578Z,99600.16
2023-02-07T23:15:58.581Z,99599.41
2023-02-07T23:18:26.593Z,99597.75
2023-02-07T23:20:54.845Z,99598.63
2023-02-07T23:23:23.171Z,99590.66
2023-02-07T23:25:51.111Z,99595.91
2023-02-07T23:28:20.539Z,99599.50
2023-02-07T23:30:48.679Z,99609.34
2023-02-07T23:33:16.727Z,99603.13
2023-02-07T23:35:44.966Z,99606.69
2023-02-07T23:38:12.935Z,99604.28
2023-02-07T23:40:41.124Z,99601.47
2023-02-07T23:43:09.192Z,99608.72
2023-02-07T23:45:38.501Z,99608.47
2023-02-07T23:48:07.304Z,99609.50
2023-02-07T23:50:35.673Z,99613.13
2023-02-07T23:53:03.782Z,99606.97
2023-02-07T23:55:31.778Z,99606.72
2023-02-07T23:57:59.701Z,99608.56
